Boeing 737-900ER выкатился на снег в Шереметьево

Boeing 737-9GJERWL авиакомпании Travel Service (QS) соскользнул со взлётно-посадочной полосы аэропорта Шереметьево при подготовке ко взлёту.

Инцидент произошёл в 14:16 по местному времени 13-го января. На борту было 40 пассажиров и 7 членов экипажа.

Выполнявший рейс QS1003 из Москвы (SVO) в Прагу (PRG) самолёт выруливал ВПП 24C, когда он выкатился за пределы полосы примерно в 190 метрах от рулёжной дорожки №14.

Согласно комментариям аэропорта, самолёт съехал с полосы при разгоне.

По данным авиакомпании, сход произошёл во время руления из-за асимметричного ускорения двигателей.

Пассажиры и экипаж были успешно эвакуированы и доставлены в терминал, пострадавших нет. Аэропорт был вынужден закрыть ВПП примерно на час для буксировки самолёта, из-за чего было задержано свыше 20 рейсов. Следственный комитет России предположил, что инцидент мог быть вызван либо ошибкой пилота, либо «неудовлетворительной очисткой взлётно-посадочной полосы».

Читайте также:  Основные дисплеи самолета Boeing-737 NG


Boeing 737-9GJERWL авиакомпании Travel Service, инцидент с рейсом QS1003 в аэропорту Москва Шереметьево (SVO)


Boeing 737-9GJERWL авиакомпании Travel Service до инцидента: 1 апреля 2017 года в аэропорту Гран-Канария (LPA)

Показания METAR:

UUEE 131200Z 21005MPS 9999 BKN031 M03/M06 Q0993 R24L/420345 R24C/420336 NOSIG=
UUEE 131130Z 19004MPS 9999 BKN037 M04/M06 Q0993 R24L/420345 R24C/420336 NOSIG=
UUEE 131100Z 21004MPS 9999 SCT035 M04/M07 Q0994 R24L/420345 R24C/420336 NOSIG=
UUEE 131030Z 21004MPS CAVOK M04/M07 Q0993 R24L/420345 R24C/420336 NOSIG=